Butts AAF (Fort Carson) Air Field Fort Carson US
ICAO: KFCS
IATA: FCS
Category: Medium
Scheduled Services: No

Elevation: 5838 ft
TransAlt. 18000 ft.

Airport Communications:
SPRINGS APP/DEP:124
FLT FLW:38.35
ATIS:108.8
PMSV METRO:44.1
PTD/OPS:141.15
TWR:125.5

KFCS Zoom In..

Runways:

(A) RW 04 length 2307 ft width 75 ft
---- / hdg 39

(B) RW 13 length 4572 ft width 75 ft
---- / hdg 126

(C) RW 22 length 2307 ft width 75 ft
---- / hdg 219

(D) RW 31 length 4572 ft width 75 ft
---- / hdg 306

Location; KFCS
Day. 20 / Time. 19.58 Zulu
* Altimeter: 30.15
* Temperature: 36° c. 96.8°f.
* Wind from: 010° Speed 11 kn with Gusts up to 16 kn.
Dewpoint: -03° c.
Visibility: 10 Statute Miles.
Clouds: Few 17000 ft.

KFCS 201958Z AUTO 01011G16KT 10SM FEW170 36/M03 A3015 RMK AO2 SLPNO T03601035 $


Wind From 010°
Speed 11 kn.

 
 
jpsmedia.com for Web Design worldairports.se 2018   terms of use